sensor_id;sensor_type;location;lat;lon;timestamp;P1;durP1;ratioP1;P2;durP2;ratioP2
41514;SDS011;27247;48.020;16.720;2022-09-30T00:03:16;5.97;;;4.68;;
41514;SDS011;27247;48.020;16.720;2022-09-30T00:07:26;7.43;;;5.13;;
41514;SDS011;27247;48.020;16.720;2022-09-30T00:11:37;7.30;;;5.35;;
41514;SDS011;27247;48.020;16.720;2022-09-30T00:15:49;8.32;;;5.90;;
41514;SDS011;27247;48.020;16.720;2022-09-30T00:19:59;8.50;;;5.93;;
41514;SDS011;27247;48.020;16.720;2022-09-30T00:24:09;7.70;;;5.47;;
41514;SDS011;27247;48.020;16.720;2022-09-30T00:28:20;8.93;;;5.47;;
41514;SDS011;27247;48.020;16.720;2022-09-30T00:32:30;8.57;;;5.93;;
41514;SDS011;27247;48.020;16.720;2022-09-30T00:36:42;8.00;;;5.80;;
41514;SDS011;27247;48.020;16.720;2022-09-30T00:40:54;9.40;;;6.57;;
41514;SDS011;27247;48.020;16.720;2022-09-30T00:45:05;8.13;;;5.70;;
41514;SDS011;27247;48.020;16.720;2022-09-30T00:49:20;9.35;;;5.78;;
41514;SDS011;27247;48.020;16.720;2022-09-30T00:53:35;9.13;;;6.70;;
41514;SDS011;27247;48.020;16.720;2022-09-30T00:57:54;9.07;;;5.95;;
41514;SDS011;27247;48.020;16.720;2022-09-30T01:02:08;10.02;;;5.97;;
41514;SDS011;27247;48.020;16.720;2022-09-30T01:06:20;8.63;;;7.00;;
41514;SDS011;27247;48.020;16.720;2022-09-30T01:10:32;9.98;;;7.53;;
41514;SDS011;27247;48.020;16.720;2022-09-30T01:14:42;10.77;;;6.90;;
41514;SDS011;27247;48.020;16.720;2022-09-30T01:32:35;10.23;;;8.38;;
41514;SDS011;27247;48.020;16.720;2022-09-30T01:46:05;14.18;;;9.38;;
41514;SDS011;27247;48.020;16.720;2022-09-30T01:59:34;15.45;;;10.60;;
41514;SDS011;27247;48.020;16.720;2022-09-30T02:03:52;14.35;;;9.93;;
41514;SDS011;27247;48.020;16.720;2022-09-30T02:08:12;13.43;;;10.30;;
41514;SDS011;27247;48.020;16.720;2022-09-30T02:12:32;16.67;;;10.02;;
41514;SDS011;27247;48.020;16.720;2022-09-30T02:16:47;14.68;;;10.25;;
41514;SDS011;27247;48.020;16.720;2022-09-30T02:21:04;14.35;;;10.23;;
41514;SDS011;27247;48.020;16.720;2022-09-30T02:25:19;17.77;;;10.88;;
41514;SDS011;27247;48.020;16.720;2022-09-30T02:29:38;14.77;;;10.30;;
41514;SDS011;27247;48.020;16.720;2022-09-30T02:33:53;16.73;;;11.85;;
41514;SDS011;27247;48.020;16.720;2022-09-30T02:38:09;17.27;;;11.80;;
41514;SDS011;27247;48.020;16.720;2022-09-30T02:42:25;17.50;;;11.32;;
41514;SDS011;27247;48.020;16.720;2022-09-30T03:00:33;16.48;;;11.65;;
41514;SDS011;27247;48.020;16.720;2022-09-30T03:04:44;16.40;;;11.95;;
41514;SDS011;27247;48.020;16.720;2022-09-30T03:08:55;14.18;;;10.48;;
41514;SDS011;27247;48.020;16.720;2022-09-30T03:26:56;17.20;;;12.15;;
41514;SDS011;27247;48.020;16.720;2022-09-30T03:31:34;18.80;;;11.27;;
41514;SDS011;27247;48.020;16.720;2022-09-30T03:36:51;19.67;;;12.57;;
41514;SDS011;27247;48.020;16.720;2022-09-30T03:45:31;19.10;;;13.27;;
41514;SDS011;27247;48.020;16.720;2022-09-30T03:49:44;23.25;;;15.93;;
41514;SDS011;27247;48.020;16.720;2022-09-30T03:53:58;25.83;;;17.02;;
41514;SDS011;27247;48.020;16.720;2022-09-30T03:58:09;21.77;;;14.73;;
41514;SDS011;27247;48.020;16.720;2022-09-30T04:02:19;21.27;;;15.17;;
41514;SDS011;27247;48.020;16.720;2022-09-30T04:06:30;24.17;;;16.90;;
41514;SDS011;27247;48.020;16.720;2022-09-30T04:10:40;22.90;;;15.60;;
41514;SDS011;27247;48.020;16.720;2022-09-30T04:14:52;25.00;;;16.10;;
41514;SDS011;27247;48.020;16.720;2022-09-30T04:19:03;23.77;;;16.50;;
41514;SDS011;27247;48.020;16.720;2022-09-30T04:23:13;25.33;;;17.55;;
41514;SDS011;27247;48.020;16.720;2022-09-30T04:27:23;27.77;;;17.47;;
41514;SDS011;27247;48.020;16.720;2022-09-30T04:31:34;22.77;;;16.57;;
41514;SDS011;27247;48.020;16.720;2022-09-30T04:35:44;29.20;;;20.60;;
41514;SDS011;27247;48.020;16.720;2022-09-30T04:39:54;26.42;;;17.20;;
41514;SDS011;27247;48.020;16.720;2022-09-30T04:44:05;24.93;;;16.73;;
41514;SDS011;27247;48.020;16.720;2022-09-30T04:48:16;31.00;;;19.25;;
41514;SDS011;27247;48.020;16.720;2022-09-30T04:52:26;32.80;;;20.57;;
41514;SDS011;27247;48.020;16.720;2022-09-30T04:56:36;29.75;;;22.20;;
41514;SDS011;27247;48.020;16.720;2022-09-30T05:00:47;31.50;;;23.77;;
41514;SDS011;27247;48.020;16.720;2022-09-30T05:04:57;33.42;;;22.95;;
41514;SDS011;27247;48.020;16.720;2022-09-30T05:09:07;31.47;;;23.13;;
41514;SDS011;27247;48.020;16.720;2022-09-30T05:13:18;30.63;;;22.08;;
41514;SDS011;27247;48.020;16.720;2022-09-30T05:17:28;31.93;;;22.07;;
41514;SDS011;27247;48.020;16.720;2022-09-30T05:21:40;33.53;;;23.35;;
41514;SDS011;27247;48.020;16.720;2022-09-30T05:25:53;27.80;;;20.35;;
41514;SDS011;27247;48.020;16.720;2022-09-30T05:30:04;26.53;;;18.97;;
41514;SDS011;27247;48.020;16.720;2022-09-30T05:34:15;28.05;;;17.80;;
41514;SDS011;27247;48.020;16.720;2022-09-30T05:38:26;23.73;;;16.43;;
41514;SDS011;27247;48.020;16.720;2022-09-30T05:42:36;27.55;;;18.15;;
41514;SDS011;27247;48.020;16.720;2022-09-30T05:46:47;24.45;;;17.40;;
41514;SDS011;27247;48.020;16.720;2022-09-30T05:50:57;29.63;;;19.10;;
41514;SDS011;27247;48.020;16.720;2022-09-30T05:55:10;26.73;;;16.83;;
41514;SDS011;27247;48.020;16.720;2022-09-30T05:59:20;18.55;;;13.60;;
41514;SDS011;27247;48.020;16.720;2022-09-30T06:03:37;17.25;;;12.30;;
41514;SDS011;27247;48.020;16.720;2022-09-30T06:07:48;17.35;;;12.77;;
41514;SDS011;27247;48.020;16.720;2022-09-30T06:12:00;19.55;;;13.07;;
41514;SDS011;27247;48.020;16.720;2022-09-30T06:16:10;23.88;;;15.38;;
41514;SDS011;27247;48.020;16.720;2022-09-30T06:20:21;23.52;;;14.68;;
41514;SDS011;27247;48.020;16.720;2022-09-30T06:24:31;26.25;;;16.60;;
41514;SDS011;27247;48.020;16.720;2022-09-30T06:28:42;26.30;;;16.43;;
41514;SDS011;27247;48.020;16.720;2022-09-30T06:32:55;22.05;;;14.73;;
41514;SDS011;27247;48.020;16.720;2022-09-30T06:37:06;21.73;;;14.05;;
41514;SDS011;27247;48.020;16.720;2022-09-30T06:41:16;21.90;;;14.48;;
41514;SDS011;27247;48.020;16.720;2022-09-30T06:45:27;18.30;;;13.07;;
41514;SDS011;27247;48.020;16.720;2022-09-30T06:49:38;15.35;;;11.40;;
41514;SDS011;27247;48.020;16.720;2022-09-30T06:53:49;12.65;;;10.43;;
41514;SDS011;27247;48.020;16.720;2022-09-30T06:58:00;15.55;;;10.55;;
41514;SDS011;27247;48.020;16.720;2022-09-30T07:02:10;13.98;;;10.30;;
41514;SDS011;27247;48.020;16.720;2022-09-30T07:06:22;12.15;;;9.50;;
41514;SDS011;27247;48.020;16.720;2022-09-30T07:10:35;26.08;;;19.00;;
41514;SDS011;27247;48.020;16.720;2022-09-30T07:14:45;25.47;;;15.40;;
41514;SDS011;27247;48.020;16.720;2022-09-30T07:18:56;39.13;;;20.42;;
41514;SDS011;27247;48.020;16.720;2022-09-30T07:23:07;26.65;;;16.02;;
41514;SDS011;27247;48.020;16.720;2022-09-30T07:27:18;16.52;;;12.30;;
41514;SDS011;27247;48.020;16.720;2022-09-30T07:31:30;17.05;;;13.20;;
41514;SDS011;27247;48.020;16.720;2022-09-30T07:35:41;14.48;;;11.25;;
41514;SDS011;27247;48.020;16.720;2022-09-30T07:40:03;15.43;;;10.80;;
41514;SDS011;27247;48.020;16.720;2022-09-30T07:44:15;15.20;;;10.45;;
41514;SDS011;27247;48.020;16.720;2022-09-30T07:48:26;18.60;;;13.63;;
41514;SDS011;27247;48.020;16.720;2022-09-30T07:52:52;16.45;;;10.68;;
41514;SDS011;27247;48.020;16.720;2022-09-30T07:57:03;14.07;;;10.18;;
41514;SDS011;27247;48.020;16.720;2022-09-30T08:01:13;13.65;;;9.68;;
41514;SDS011;27247;48.020;16.720;2022-09-30T08:05:25;20.55;;;13.10;;
41514;SDS011;27247;48.020;16.720;2022-09-30T08:09:35;17.80;;;10.50;;
41514;SDS011;27247;48.020;16.720;2022-09-30T08:14:04;22.67;;;16.95;;
41514;SDS011;27247;48.020;16.720;2022-09-30T08:18:14;11.03;;;8.13;;
41514;SDS011;27247;48.020;16.720;2022-09-30T08:22:25;14.20;;;7.13;;
41514;SDS011;27247;48.020;16.720;2022-09-30T08:26:35;9.50;;;7.03;;
41514;SDS011;27247;48.020;16.720;2022-09-30T08:30:46;9.80;;;6.68;;
41514;SDS011;27247;48.020;16.720;2022-09-30T08:34:56;13.13;;;7.47;;
41514;SDS011;27247;48.020;16.720;2022-09-30T08:39:06;9.77;;;6.85;;
41514;SDS011;27247;48.020;16.720;2022-09-30T08:43:23;10.93;;;8.17;;
41514;SDS011;27247;48.020;16.720;2022-09-30T08:51:51;8.57;;;7.68;;
41514;SDS011;27247;48.020;16.720;2022-09-30T08:56:04;9.95;;;7.80;;
41514;SDS011;27247;48.020;16.720;2022-09-30T09:00:16;11.05;;;8.82;;
41514;SDS011;27247;48.020;16.720;2022-09-30T09:04:28;10.32;;;8.05;;
41514;SDS011;27247;48.020;16.720;2022-09-30T09:08:45;15.20;;;9.27;;
41514;SDS011;27247;48.020;16.720;2022-09-30T09:13:22;14.48;;;10.40;;
41514;SDS011;27247;48.020;16.720;2022-09-30T09:22:16;13.77;;;9.98;;
41514;SDS011;27247;48.020;16.720;2022-09-30T09:26:29;11.98;;;9.88;;
41514;SDS011;27247;48.020;16.720;2022-09-30T09:30:48;13.95;;;10.27;;
41514;SDS011;27247;48.020;16.720;2022-09-30T09:35:14;17.60;;;12.45;;
41514;SDS011;27247;48.020;16.720;2022-09-30T09:43:50;18.65;;;12.75;;
41514;SDS011;27247;48.020;16.720;2022-09-30T09:48:16;18.52;;;13.00;;
41514;SDS011;27247;48.020;16.720;2022-09-30T09:52:37;21.13;;;15.20;;
41514;SDS011;27247;48.020;16.720;2022-09-30T09:57:10;21.10;;;14.38;;
41514;SDS011;27247;48.020;16.720;2022-09-30T10:01:21;18.92;;;13.35;;
41514;SDS011;27247;48.020;16.720;2022-09-30T10:05:41;16.58;;;12.00;;
41514;SDS011;27247;48.020;16.720;2022-09-30T10:10:04;23.52;;;14.43;;
41514;SDS011;27247;48.020;16.720;2022-09-30T10:14:26;14.70;;;10.55;;
41514;SDS011;27247;48.020;16.720;2022-09-30T10:18:37;15.20;;;12.50;;
41514;SDS011;27247;48.020;16.720;2022-09-30T10:22:48;18.00;;;12.65;;
41514;SDS011;27247;48.020;16.720;2022-09-30T10:26:59;18.43;;;12.70;;
41514;SDS011;27247;48.020;16.720;2022-09-30T10:31:28;17.45;;;12.95;;
41514;SDS011;27247;48.020;16.720;2022-09-30T10:35:52;17.15;;;12.50;;
41514;SDS011;27247;48.020;16.720;2022-09-30T10:40:04;14.35;;;11.00;;
41514;SDS011;27247;48.020;16.720;2022-09-30T10:44:19;15.02;;;12.50;;
41514;SDS011;27247;48.020;16.720;2022-09-30T10:48:33;17.15;;;12.32;;
41514;SDS011;27247;48.020;16.720;2022-09-30T10:57:04;15.65;;;10.52;;
41514;SDS011;27247;48.020;16.720;2022-09-30T11:01:33;12.88;;;10.65;;
41514;SDS011;27247;48.020;16.720;2022-09-30T11:05:50;20.67;;;12.40;;
41514;SDS011;27247;48.020;16.720;2022-09-30T11:10:05;16.93;;;10.80;;
41514;SDS011;27247;48.020;16.720;2022-09-30T11:19:03;15.52;;;9.98;;
41514;SDS011;27247;48.020;16.720;2022-09-30T11:23:29;14.93;;;10.52;;
41514;SDS011;27247;48.020;16.720;2022-09-30T11:41:08;12.23;;;9.45;;
41514;SDS011;27247;48.020;16.720;2022-09-30T11:58:42;11.65;;;7.78;;
41514;SDS011;27247;48.020;16.720;2022-09-30T12:03:00;7.43;;;6.65;;
41514;SDS011;27247;48.020;16.720;2022-09-30T12:07:33;5.88;;;4.63;;
41514;SDS011;27247;48.020;16.720;2022-09-30T12:11:51;7.30;;;5.25;;
41514;SDS011;27247;48.020;16.720;2022-09-30T12:16:20;6.03;;;4.80;;
41514;SDS011;27247;48.020;16.720;2022-09-30T12:20:36;5.95;;;3.83;;
41514;SDS011;27247;48.020;16.720;2022-09-30T12:24:50;7.10;;;5.13;;
41514;SDS011;27247;48.020;16.720;2022-09-30T12:29:21;10.30;;;6.78;;
41514;SDS011;27247;48.020;16.720;2022-09-30T12:47:40;8.43;;;6.85;;
41514;SDS011;27247;48.020;16.720;2022-09-30T12:51:57;8.43;;;6.95;;
41514;SDS011;27247;48.020;16.720;2022-09-30T12:56:12;12.40;;;7.65;;
41514;SDS011;27247;48.020;16.720;2022-09-30T13:00:25;9.05;;;7.90;;
41514;SDS011;27247;48.020;16.720;2022-09-30T13:04:39;7.80;;;7.07;;
41514;SDS011;27247;48.020;16.720;2022-09-30T13:09:06;8.00;;;6.20;;
41514;SDS011;27247;48.020;16.720;2022-09-30T13:13:27;8.80;;;6.28;;
41514;SDS011;27247;48.020;16.720;2022-09-30T13:17:40;10.00;;;5.68;;
41514;SDS011;27247;48.020;16.720;2022-09-30T13:21:52;9.70;;;6.40;;
41514;SDS011;27247;48.020;16.720;2022-09-30T13:26:39;7.50;;;5.93;;
41514;SDS011;27247;48.020;16.720;2022-09-30T13:31:09;6.53;;;4.80;;
41514;SDS011;27247;48.020;16.720;2022-09-30T13:39:58;6.05;;;4.18;;
41514;SDS011;27247;48.020;16.720;2022-09-30T13:44:18;6.60;;;4.85;;
41514;SDS011;27247;48.020;16.720;2022-09-30T13:48:35;6.90;;;5.40;;
41514;SDS011;27247;48.020;16.720;2022-09-30T13:52:50;5.70;;;4.80;;
41514;SDS011;27247;48.020;16.720;2022-09-30T13:57:06;6.38;;;4.97;;
41514;SDS011;27247;48.020;16.720;2022-09-30T14:20:00;5.03;;;3.60;;
41514;SDS011;27247;48.020;16.720;2022-09-30T14:24:25;4.22;;;3.20;;
41514;SDS011;27247;48.020;16.720;2022-09-30T14:28:42;5.18;;;3.45;;
41514;SDS011;27247;48.020;16.720;2022-09-30T14:33:01;3.20;;;2.80;;
41514;SDS011;27247;48.020;16.720;2022-09-30T14:37:27;4.00;;;3.03;;
41514;SDS011;27247;48.020;16.720;2022-09-30T14:41:45;4.10;;;3.70;;
41514;SDS011;27247;48.020;16.720;2022-09-30T14:46:04;3.92;;;3.50;;
41514;SDS011;27247;48.020;16.720;2022-09-30T14:50:23;4.22;;;3.83;;
41514;SDS011;27247;48.020;16.720;2022-09-30T14:54:37;18.15;;;10.63;;
41514;SDS011;27247;48.020;16.720;2022-09-30T14:58:57;21.35;;;13.27;;
41514;SDS011;27247;48.020;16.720;2022-09-30T15:03:10;6.25;;;3.72;;
41514;SDS011;27247;48.020;16.720;2022-09-30T15:07:21;5.00;;;3.92;;
41514;SDS011;27247;48.020;16.720;2022-09-30T15:11:32;5.93;;;3.53;;
41514;SDS011;27247;48.020;16.720;2022-09-30T15:15:44;7.43;;;3.92;;
41514;SDS011;27247;48.020;16.720;2022-09-30T15:19:55;4.75;;;3.88;;
41514;SDS011;27247;48.020;16.720;2022-09-30T15:24:07;5.40;;;4.05;;
41514;SDS011;27247;48.020;16.720;2022-09-30T15:28:20;5.07;;;3.88;;
41514;SDS011;27247;48.020;16.720;2022-09-30T15:32:33;6.88;;;3.88;;
41514;SDS011;27247;48.020;16.720;2022-09-30T15:36:45;5.13;;;4.25;;
41514;SDS011;27247;48.020;16.720;2022-09-30T15:41:06;5.88;;;4.43;;
41514;SDS011;27247;48.020;16.720;2022-09-30T15:45:32;6.57;;;4.97;;
41514;SDS011;27247;48.020;16.720;2022-09-30T15:49:45;8.40;;;4.70;;
41514;SDS011;27247;48.020;16.720;2022-09-30T15:58:34;6.03;;;4.13;;
41514;SDS011;27247;48.020;16.720;2022-09-30T16:02:46;5.55;;;3.55;;
41514;SDS011;27247;48.020;16.720;2022-09-30T16:06:57;4.07;;;2.80;;
41514;SDS011;27247;48.020;16.720;2022-09-30T16:11:17;6.15;;;3.90;;
41514;SDS011;27247;48.020;16.720;2022-09-30T16:15:34;4.97;;;3.55;;
41514;SDS011;27247;48.020;16.720;2022-09-30T16:19:53;5.00;;;4.50;;
41514;SDS011;27247;48.020;16.720;2022-09-30T16:24:57;17.23;;;11.30;;
41514;SDS011;27247;48.020;16.720;2022-09-30T16:28:37;15.60;;;10.88;;
41514;SDS011;27247;48.020;16.720;2022-09-30T16:32:54;18.93;;;12.60;;
41514;SDS011;27247;48.020;16.720;2022-09-30T16:37:10;16.70;;;11.35;;
41514;SDS011;27247;48.020;16.720;2022-09-30T16:41:23;10.32;;;8.32;;
41514;SDS011;27247;48.020;16.720;2022-09-30T16:45:34;8.90;;;6.25;;
41514;SDS011;27247;48.020;16.720;2022-09-30T16:49:46;8.60;;;5.80;;
41514;SDS011;27247;48.020;16.720;2022-09-30T16:53:56;5.47;;;4.70;;
41514;SDS011;27247;48.020;16.720;2022-09-30T16:58:11;7.40;;;4.53;;
41514;SDS011;27247;48.020;16.720;2022-09-30T17:02:22;5.78;;;5.13;;
41514;SDS011;27247;48.020;16.720;2022-09-30T17:06:32;5.70;;;4.60;;
41514;SDS011;27247;48.020;16.720;2022-09-30T17:10:44;5.88;;;5.25;;
41514;SDS011;27247;48.020;16.720;2022-09-30T17:14:56;7.75;;;5.25;;
41514;SDS011;27247;48.020;16.720;2022-09-30T17:19:07;7.47;;;5.83;;
41514;SDS011;27247;48.020;16.720;2022-09-30T17:23:18;14.13;;;6.50;;
41514;SDS011;27247;48.020;16.720;2022-09-30T17:27:30;10.05;;;6.20;;
41514;SDS011;27247;48.020;16.720;2022-09-30T17:31:40;7.28;;;5.95;;
41514;SDS011;27247;48.020;16.720;2022-09-30T17:35:57;9.20;;;5.88;;
41514;SDS011;27247;48.020;16.720;2022-09-30T17:40:09;6.80;;;4.70;;
41514;SDS011;27247;48.020;16.720;2022-09-30T17:44:38;7.30;;;4.65;;
41514;SDS011;27247;48.020;16.720;2022-09-30T17:48:53;5.05;;;4.50;;
41514;SDS011;27247;48.020;16.720;2022-09-30T17:53:04;8.63;;;5.13;;
41514;SDS011;27247;48.020;16.720;2022-09-30T17:57:17;8.48;;;5.47;;
41514;SDS011;27247;48.020;16.720;2022-09-30T18:01:27;5.53;;;4.72;;
41514;SDS011;27247;48.020;16.720;2022-09-30T18:05:38;6.78;;;5.28;;
41514;SDS011;27247;48.020;16.720;2022-09-30T18:09:49;6.97;;;5.07;;
41514;SDS011;27247;48.020;16.720;2022-09-30T18:14:00;6.60;;;5.57;;
41514;SDS011;27247;48.020;16.720;2022-09-30T18:18:11;8.52;;;5.22;;
41514;SDS011;27247;48.020;16.720;2022-09-30T18:22:22;7.80;;;5.45;;
41514;SDS011;27247;48.020;16.720;2022-09-30T18:26:32;5.82;;;4.43;;
41514;SDS011;27247;48.020;16.720;2022-09-30T18:30:43;9.50;;;5.13;;
41514;SDS011;27247;48.020;16.720;2022-09-30T18:34:55;6.68;;;4.90;;
41514;SDS011;27247;48.020;16.720;2022-09-30T18:39:06;5.15;;;4.43;;
41514;SDS011;27247;48.020;16.720;2022-09-30T18:43:16;6.82;;;6.07;;
41514;SDS011;27247;48.020;16.720;2022-09-30T18:47:27;10.48;;;6.97;;
41514;SDS011;27247;48.020;16.720;2022-09-30T18:51:38;8.23;;;6.28;;
41514;SDS011;27247;48.020;16.720;2022-09-30T18:55:49;8.48;;;6.80;;
41514;SDS011;27247;48.020;16.720;2022-09-30T18:59:59;11.18;;;6.88;;
41514;SDS011;27247;48.020;16.720;2022-09-30T19:04:11;10.07;;;7.85;;
41514;SDS011;27247;48.020;16.720;2022-09-30T19:08:23;9.02;;;6.85;;
41514;SDS011;27247;48.020;16.720;2022-09-30T19:12:35;9.60;;;8.60;;
41514;SDS011;27247;48.020;16.720;2022-09-30T19:16:47;8.73;;;7.05;;
41514;SDS011;27247;48.020;16.720;2022-09-30T19:21:08;11.93;;;8.25;;
41514;SDS011;27247;48.020;16.720;2022-09-30T19:25:20;9.13;;;7.20;;
41514;SDS011;27247;48.020;16.720;2022-09-30T19:29:31;10.40;;;6.88;;
41514;SDS011;27247;48.020;16.720;2022-09-30T19:33:42;10.60;;;8.18;;
41514;SDS011;27247;48.020;16.720;2022-09-30T19:37:55;9.80;;;6.70;;
41514;SDS011;27247;48.020;16.720;2022-09-30T19:42:08;12.20;;;6.70;;
41514;SDS011;27247;48.020;16.720;2022-09-30T19:46:19;11.85;;;6.93;;
41514;SDS011;27247;48.020;16.720;2022-09-30T19:50:30;12.48;;;8.50;;
41514;SDS011;27247;48.020;16.720;2022-09-30T19:54:43;11.93;;;7.50;;
41514;SDS011;27247;48.020;16.720;2022-09-30T19:58:56;15.55;;;9.10;;
41514;SDS011;27247;48.020;16.720;2022-09-30T20:03:10;12.70;;;9.13;;
41514;SDS011;27247;48.020;16.720;2022-09-30T20:07:21;13.38;;;9.07;;
41514;SDS011;27247;48.020;16.720;2022-09-30T20:11:33;12.63;;;10.10;;
41514;SDS011;27247;48.020;16.720;2022-09-30T20:15:45;13.48;;;9.48;;
41514;SDS011;27247;48.020;16.720;2022-09-30T20:20:01;14.80;;;10.10;;
41514;SDS011;27247;48.020;16.720;2022-09-30T20:24:30;14.33;;;10.63;;
41514;SDS011;27247;48.020;16.720;2022-09-30T20:28:40;17.48;;;11.95;;
41514;SDS011;27247;48.020;16.720;2022-09-30T20:32:51;17.83;;;13.07;;
41514;SDS011;27247;48.020;16.720;2022-09-30T20:37:02;17.15;;;12.70;;
41514;SDS011;27247;48.020;16.720;2022-09-30T20:41:12;17.45;;;12.57;;
41514;SDS011;27247;48.020;16.720;2022-09-30T20:45:22;17.83;;;13.60;;
41514;SDS011;27247;48.020;16.720;2022-09-30T20:49:34;17.90;;;13.13;;
41514;SDS011;27247;48.020;16.720;2022-09-30T20:53:49;18.90;;;13.98;;
41514;SDS011;27247;48.020;16.720;2022-09-30T20:58:00;22.85;;;15.55;;
41514;SDS011;27247;48.020;16.720;2022-09-30T21:02:11;23.48;;;15.68;;
41514;SDS011;27247;48.020;16.720;2022-09-30T21:06:24;27.45;;;17.75;;
41514;SDS011;27247;48.020;16.720;2022-09-30T21:10:36;26.67;;;18.33;;
41514;SDS011;27247;48.020;16.720;2022-09-30T21:14:47;29.55;;;19.95;;
41514;SDS011;27247;48.020;16.720;2022-09-30T21:18:58;30.60;;;19.90;;
41514;SDS011;27247;48.020;16.720;2022-09-30T21:23:08;29.45;;;19.88;;
41514;SDS011;27247;48.020;16.720;2022-09-30T21:27:18;32.85;;;20.45;;
41514;SDS011;27247;48.020;16.720;2022-09-30T21:31:29;31.20;;;21.10;;
41514;SDS011;27247;48.020;16.720;2022-09-30T21:35:39;30.80;;;21.13;;
41514;SDS011;27247;48.020;16.720;2022-09-30T21:39:49;33.40;;;21.53;;
41514;SDS011;27247;48.020;16.720;2022-09-30T21:44:00;31.20;;;20.75;;
41514;SDS011;27247;48.020;16.720;2022-09-30T21:48:15;31.02;;;20.70;;
41514;SDS011;27247;48.020;16.720;2022-09-30T21:52:28;33.92;;;21.50;;
41514;SDS011;27247;48.020;16.720;2022-09-30T21:56:40;33.30;;;23.60;;
41514;SDS011;27247;48.020;16.720;2022-09-30T22:00:52;39.85;;;24.15;;
41514;SDS011;27247;48.020;16.720;2022-09-30T22:05:06;33.83;;;22.05;;
41514;SDS011;27247;48.020;16.720;2022-09-30T22:09:16;31.10;;;21.42;;
41514;SDS011;27247;48.020;16.720;2022-09-30T22:13:27;32.20;;;21.30;;
41514;SDS011;27247;48.020;16.720;2022-09-30T22:17:37;29.75;;;19.95;;
41514;SDS011;27247;48.020;16.720;2022-09-30T22:21:47;30.30;;;20.67;;
41514;SDS011;27247;48.020;16.720;2022-09-30T22:26:04;29.00;;;18.80;;
41514;SDS011;27247;48.020;16.720;2022-09-30T22:30:25;29.83;;;19.70;;
41514;SDS011;27247;48.020;16.720;2022-09-30T22:34:36;30.60;;;20.35;;
41514;SDS011;27247;48.020;16.720;2022-09-30T22:39:05;29.70;;;20.48;;
41514;SDS011;27247;48.020;16.720;2022-09-30T22:43:15;28.23;;;18.77;;
41514;SDS011;27247;48.020;16.720;2022-09-30T22:47:26;25.87;;;18.20;;
41514;SDS011;27247;48.020;16.720;2022-09-30T22:51:37;29.25;;;20.02;;
41514;SDS011;27247;48.020;16.720;2022-09-30T22:55:47;27.65;;;20.58;;
41514;SDS011;27247;48.020;16.720;2022-09-30T22:59:58;28.77;;;19.40;;
41514;SDS011;27247;48.020;16.720;2022-09-30T23:04:08;29.80;;;19.83;;
41514;SDS011;27247;48.020;16.720;2022-09-30T23:08:19;28.40;;;19.95;;
41514;SDS011;27247;48.020;16.720;2022-09-30T23:12:31;28.30;;;20.33;;
41514;SDS011;27247;48.020;16.720;2022-09-30T23:16:43;32.70;;;20.95;;
41514;SDS011;27247;48.020;16.720;2022-09-30T23:21:03;30.00;;;20.33;;
41514;SDS011;27247;48.020;16.720;2022-09-30T23:25:17;26.98;;;20.52;;
41514;SDS011;27247;48.020;16.720;2022-09-30T23:29:28;31.93;;;20.27;;
41514;SDS011;27247;48.020;16.720;2022-09-30T23:33:39;35.23;;;23.20;;
41514;SDS011;27247;48.020;16.720;2022-09-30T23:37:56;33.17;;;22.87;;
41514;SDS011;27247;48.020;16.720;2022-09-30T23:42:07;32.60;;;22.57;;
41514;SDS011;27247;48.020;16.720;2022-09-30T23:46:17;32.13;;;22.77;;
41514;SDS011;27247;48.020;16.720;2022-09-30T23:50:28;33.13;;;22.00;;
41514;SDS011;27247;48.020;16.720;2022-09-30T23:54:41;36.78;;;24.75;;
41514;SDS011;27247;48.020;16.720;2022-09-30T23:58:51;37.65;;;25.02;;
